createdAt,value
2018-05-04T05:35:50.490Z,12.36
2018-05-04T05:36:31.045Z,12.29
2018-05-04T05:37:11.602Z,12.39
2018-05-04T05:37:52.217Z,12.39
2018-05-04T05:38:32.764Z,12.42
2018-05-04T05:39:13.329Z,12.47
2018-05-04T05:39:53.884Z,12.5
2018-05-04T05:40:34.435Z,12.57
2018-05-04T05:41:14.988Z,12.62
2018-05-04T05:41:55.552Z,12.6
2018-05-04T05:42:36.181Z,12.76
2018-05-04T05:43:16.951Z,12.73
2018-05-04T05:43:59.536Z,12.83
2018-05-04T05:44:40.182Z,12.94
2018-05-04T05:45:20.808Z,12.95
2018-05-04T05:46:01.469Z,13.04
2018-05-04T05:46:42.139Z,13.08
2018-05-04T05:47:22.724Z,13.16
2018-05-04T05:48:03.534Z,13.27
2018-05-04T05:48:44.351Z,13.31
2018-05-04T05:49:25.002Z,13.39
2018-05-04T05:50:05.672Z,13.35
2018-05-04T05:50:46.310Z,13.35
2018-05-04T05:51:26.912Z,13.39
2018-05-04T05:52:07.491Z,13.47
2018-05-04T05:52:48.255Z,13.44
2018-05-04T05:53:29.066Z,13.54
2018-05-04T05:54:09.859Z,13.6
2018-05-04T05:54:50.434Z,13.67
2018-05-04T05:55:31.202Z,13.77
2018-05-04T05:56:12.013Z,13.83
2018-05-04T05:56:52.638Z,13.79
2018-05-04T05:57:33.217Z,13.89
2018-05-04T05:58:13.770Z,13.85
2018-05-04T05:58:54.350Z,14
2018-05-04T05:59:35.078Z,14.08
2018-05-04T06:00:15.782Z,14.12
2018-05-04T06:00:56.362Z,14.14
2018-05-04T06:01:36.963Z,14.32
2018-05-04T06:02:17.536Z,14.29
2018-05-04T06:02:58.430Z,14.29
2018-05-04T06:03:39.075Z,14.35
2018-05-04T06:04:19.713Z,14.47
2018-05-04T06:05:00.460Z,14.51
2018-05-04T06:05:41.060Z,14.51
2018-05-04T06:06:21.729Z,14.68
2018-05-04T06:07:02.363Z,14.63
2018-05-04T06:07:44.349Z,14.58
2018-05-04T06:08:25.127Z,14.63
2018-05-04T06:09:05.901Z,14.68
2018-05-04T06:09:46.926Z,14.77
2018-05-04T06:10:27.775Z,14.92
2018-05-04T06:11:08.533Z,14.92
2018-05-04T06:11:49.453Z,14.97
2018-05-04T06:12:30.182Z,15.1
2018-05-04T06:13:10.936Z,15.19
2018-05-04T06:13:51.610Z,15.22
2018-05-04T06:14:32.189Z,15.29
2018-05-04T06:15:12.775Z,15.39
2018-05-04T06:15:53.483Z,15.33
2018-05-04T06:16:34.073Z,15.44
2018-05-04T06:17:14.673Z,15.52
2018-05-04T06:17:55.509Z,15.55
2018-05-04T06:18:36.543Z,15.77
2018-05-04T06:19:17.383Z,15.77
2018-05-04T06:19:58.104Z,15.84
2018-05-04T06:20:38.706Z,15.98
2018-05-04T06:21:19.302Z,16.01
2018-05-04T06:21:59.930Z,16.05
2018-05-04T06:22:40.501Z,16.1
2018-05-04T06:23:21.066Z,16.13
2018-05-04T06:24:01.670Z,16.24
2018-05-04T06:24:42.271Z,16.24
2018-05-04T06:25:23.275Z,16.29
2018-05-04T06:26:03.975Z,16.39
2018-05-04T06:26:44.565Z,16.41
2018-05-04T06:27:25.157Z,16.56
2018-05-04T06:28:05.731Z,16.65
2018-05-04T06:28:46.317Z,16.72
2018-05-04T06:29:26.974Z,16.69
2018-05-04T06:30:07.914Z,16.71
2018-05-04T06:30:48.512Z,16.76
2018-05-04T06:31:29.071Z,16.87
2018-05-04T06:32:09.679Z,16.96
2018-05-04T06:32:50.504Z,17.08
2018-05-04T06:33:31.069Z,17.16
2018-05-04T06:34:14.589Z,17.23
2018-05-04T06:34:55.165Z,17.22
2018-05-04T06:35:36.257Z,17.26
2018-05-04T06:36:16.871Z,17.42
2018-05-04T06:36:57.464Z,17.34
2018-05-04T06:37:38.670Z,17.39
2018-05-04T06:38:19.202Z,17.46
2018-05-04T06:39:00.013Z,17.46
2018-05-04T06:39:40.812Z,17.64
2018-05-04T06:40:21.349Z,17.59
2018-05-04T06:41:01.920Z,17.57
2018-05-04T06:41:42.520Z,17.68
2018-05-04T06:42:23.103Z,17.79
2018-05-04T06:43:03.671Z,17.7
2018-05-04T06:43:44.285Z,17.82
2018-05-04T06:44:24.893Z,17.82
2018-05-04T06:45:05.516Z,17.97
2018-05-04T06:45:46.076Z,17.98
2018-05-04T06:46:26.618Z,17.94
2018-05-04T06:47:07.212Z,17.98
2018-05-04T06:47:47.801Z,17.98
2018-05-04T06:48:28.433Z,18.08
2018-05-04T06:49:09.003Z,18.19
2018-05-04T06:49:49.556Z,18.19
2018-05-04T06:50:30.145Z,18.16
2018-05-04T06:51:10.751Z,18.26
2018-05-04T06:51:51.367Z,18.33
2018-05-04T06:52:31.940Z,18.41
2018-05-04T06:53:12.613Z,18.31
2018-05-04T06:53:53.170Z,18.33
2018-05-04T06:54:33.771Z,18.41
2018-05-04T06:55:15.303Z,18.43
2018-05-04T06:55:56.326Z,18.47
2018-05-04T06:56:37.002Z,18.53
2018-05-04T06:57:17.857Z,18.6
2018-05-04T06:57:58.434Z,18.59
2018-05-04T06:58:39.031Z,18.63
2018-05-04T06:59:19.639Z,18.65
2018-05-04T07:00:00.246Z,18.71
2018-05-04T07:00:41.687Z,18.78
2018-05-04T07:01:22.265Z,18.74
2018-05-04T07:02:03.013Z,18.8
2018-05-04T07:02:43.677Z,18.86
2018-05-04T07:03:24.310Z,18.9
2018-05-04T07:04:04.918Z,18.89
2018-05-04T07:04:45.645Z,19
2018-05-04T07:05:26.220Z,18.92
2018-05-04T07:06:06.802Z,19
2018-05-04T07:06:47.617Z,18.89
2018-05-04T07:07:28.318Z,18.84
2018-05-04T07:08:08.939Z,18.84
2018-05-04T07:08:49.521Z,18.75
2018-05-04T07:09:30.119Z,18.88
2018-05-04T07:10:10.719Z,18.95
2018-05-04T07:10:51.308Z,18.92
2018-05-04T07:11:31.913Z,18.88
2018-05-04T07:12:12.505Z,19.02
2018-05-04T07:12:53.091Z,18.9
2018-05-04T07:13:33.669Z,18.95
2018-05-04T07:14:14.237Z,18.93
2018-05-04T07:14:54.844Z,18.9
2018-05-04T07:15:35.431Z,19.07
2018-05-04T07:16:16.007Z,19.02
2018-05-04T07:16:56.572Z,18.99
2018-05-04T07:17:37.165Z,19.08
2018-05-04T07:18:17.740Z,18.99
2018-05-04T07:18:58.330Z,19.08
2018-05-04T07:19:38.896Z,19.18
2018-05-04T07:20:19.490Z,19.16
2018-05-04T07:21:00.081Z,19.16
2018-05-04T07:21:40.677Z,19.21
2018-05-04T07:22:21.240Z,19.15
2018-05-04T07:23:01.823Z,19.14
2018-05-04T07:23:42.413Z,19.39
2018-05-04T07:24:23.001Z,19.37
2018-05-04T07:25:03.591Z,19.39
2018-05-04T07:25:44.205Z,19.4
2018-05-04T07:26:24.783Z,19.51
2018-05-04T07:27:05.372Z,19.48
2018-05-04T07:27:45.967Z,19.51
2018-05-04T07:28:26.548Z,19.59
2018-05-04T07:29:07.146Z,19.64
2018-05-04T07:29:47.720Z,19.56
2018-05-04T07:30:28.310Z,19.56
2018-05-04T07:31:08.928Z,19.52
2018-05-04T07:31:49.503Z,19.56
2018-05-04T07:32:30.098Z,19.63
2018-05-04T07:33:10.702Z,19.54
2018-05-04T07:33:51.287Z,19.47
2018-05-04T07:34:31.855Z,19.48
2018-05-04T07:35:12.446Z,19.41
2018-05-04T07:35:53.069Z,19.39
2018-05-04T07:36:33.590Z,19.44
2018-05-04T07:37:14.192Z,19.47
2018-05-04T07:37:54.759Z,19.47
2018-05-04T07:38:35.340Z,19.49
2018-05-04T07:39:15.929Z,19.66
2018-05-04T07:39:56.517Z,19.71
2018-05-04T07:40:37.094Z,19.64
2018-05-04T07:41:17.673Z,19.74
2018-05-04T07:41:58.262Z,19.82
2018-05-04T07:42:38.866Z,19.95
2018-05-04T07:43:19.432Z,19.85
2018-05-04T07:44:00.019Z,20
2018-05-04T07:44:40.603Z,20.07
2018-05-04T07:45:21.204Z,20.09
2018-05-04T07:46:01.776Z,20.09
2018-05-04T07:46:42.391Z,20.03
2018-05-04T07:47:22.984Z,20.06
2018-05-04T07:48:03.918Z,20.04
2018-05-04T07:48:44.515Z,20.04
2018-05-04T07:49:25.093Z,19.96
2018-05-04T07:50:05.659Z,19.91
2018-05-04T07:50:46.238Z,19.92
2018-05-04T07:51:26.814Z,19.89
2018-05-04T07:52:07.437Z,19.86
2018-05-04T07:52:48.317Z,19.91
2018-05-04T07:53:28.951Z,19.94
2018-05-04T07:54:09.531Z,19.94
2018-05-04T07:54:50.140Z,19.88
2018-05-04T07:55:30.721Z,19.82
2018-05-04T07:56:11.306Z,19.85
2018-05-04T07:56:51.881Z,19.77
2018-05-04T07:57:32.490Z,19.69
2018-05-04T07:58:13.091Z,19.74
2018-05-04T07:58:53.687Z,19.67
2018-05-04T07:59:34.246Z,19.66
2018-05-04T08:00:14.821Z,19.63
2018-05-04T08:00:55.401Z,19.55
2018-05-04T08:01:36.034Z,19.51
2018-05-04T08:02:16.620Z,19.48
2018-05-04T08:02:57.279Z,19.48
2018-05-04T08:03:37.761Z,19.44
2018-05-04T08:04:18.517Z,19.49
2018-05-04T08:04:59.100Z,19.62
2018-05-04T08:05:39.717Z,19.54
2018-05-04T08:06:20.316Z,19.56
2018-05-04T08:07:00.884Z,19.56
2018-05-04T08:07:41.454Z,19.62
2018-05-04T08:08:22.026Z,19.59
2018-05-04T08:09:02.591Z,19.64
2018-05-04T08:09:43.158Z,19.74
2018-05-04T08:10:23.774Z,19.71
2018-05-04T08:11:04.380Z,19.77
2018-05-04T08:11:44.981Z,19.73
2018-05-04T08:12:25.567Z,19.82
2018-05-04T08:13:06.176Z,19.82
2018-05-04T08:13:46.774Z,19.84
2018-05-04T08:14:27.354Z,19.91
2018-05-04T08:15:07.955Z,19.89
2018-05-04T08:15:48.534Z,19.89
2018-05-04T08:16:29.137Z,19.92
2018-05-04T08:17:09.693Z,19.99
2018-05-04T08:17:50.295Z,19.92
2018-05-04T08:18:30.854Z,19.92
2018-05-04T08:19:11.422Z,20.02
2018-05-04T08:19:52.029Z,19.91
2018-05-04T08:20:32.621Z,20.06
2018-05-04T08:21:13.187Z,20.02
2018-05-04T08:21:53.767Z,20.06
2018-05-04T08:22:34.349Z,20.13
2018-05-04T08:23:14.926Z,20.1
2018-05-04T08:23:55.502Z,20.07
2018-05-04T08:24:36.082Z,19.96
2018-05-04T08:25:16.654Z,19.89
2018-05-04T08:25:57.266Z,19.86
2018-05-04T08:26:37.817Z,19.82
2018-05-04T08:27:18.403Z,19.89
2018-05-04T08:27:58.956Z,19.86
2018-05-04T08:28:39.526Z,19.85
2018-05-04T08:29:20.135Z,19.91
2018-05-04T08:30:00.744Z,19.94
2018-05-04T08:30:41.291Z,19.89
2018-05-04T08:31:21.841Z,19.85
2018-05-04T08:32:02.403Z,19.94
2018-05-04T08:32:42.986Z,19.88
2018-05-04T08:33:23.583Z,19.89
2018-05-04T08:34:04.155Z,19.99
2018-05-04T08:34:44.758Z,19.94
2018-05-04T08:35:25.436Z,19.89
2018-05-04T08:36:05.990Z,20.02
2018-05-04T08:36:46.557Z,19.91
2018-05-04T08:37:27.122Z,20
2018-05-04T08:38:07.717Z,20.03
2018-05-04T08:38:48.304Z,20.1
2018-05-04T08:39:28.864Z,20.07
2018-05-04T08:40:09.491Z,20.06
2018-05-04T08:40:50.192Z,19.95
2018-05-04T08:41:30.647Z,20.02
2018-05-04T08:42:11.223Z,20
2018-05-04T08:42:51.853Z,19.89
2018-05-04T08:43:32.378Z,19.89
2018-05-04T08:44:12.945Z,19.88
2018-05-04T08:44:53.534Z,19.81
2018-05-04T08:45:34.098Z,19.74
2018-05-04T08:46:14.657Z,19.84
2018-05-04T08:46:55.290Z,19.79
2018-05-04T08:47:35.822Z,19.77
2018-05-04T08:48:16.434Z,19.82
2018-05-04T08:48:57.006Z,19.84
2018-05-04T08:49:37.607Z,19.79
2018-05-04T08:50:18.193Z,19.7
2018-05-04T08:50:58.850Z,19.73
2018-05-04T08:51:39.328Z,19.77
2018-05-04T08:52:19.936Z,19.74
2018-05-04T08:53:00.521Z,19.7
2018-05-04T08:53:41.129Z,19.7
2018-05-04T08:54:21.820Z,19.74
2018-05-04T08:55:02.331Z,19.62
2018-05-04T08:55:42.886Z,19.63
2018-05-04T08:56:23.456Z,19.66
2018-05-04T08:57:04.068Z,19.66
2018-05-04T08:57:44.639Z,19.59
2018-05-04T08:58:25.206Z,19.62
2018-05-04T08:59:05.770Z,19.58
2018-05-04T08:59:46.329Z,19.59
2018-05-04T09:00:26.950Z,19.51
2018-05-04T09:01:07.489Z,19.49
2018-05-04T09:01:48.047Z,19.52
2018-05-04T09:02:28.720Z,19.52
2018-05-04T09:03:09.271Z,19.64
2018-05-04T09:03:49.871Z,19.56
2018-05-04T09:04:30.475Z,19.59
2018-05-04T09:05:11.234Z,19.63
2018-05-04T09:05:51.658Z,19.59
2018-05-04T09:06:32.226Z,19.62
2018-05-04T09:07:12.801Z,19.56
2018-05-04T09:07:53.403Z,19.62
2018-05-04T09:08:33.954Z,19.58
2018-05-04T09:09:14.547Z,19.59
2018-05-04T09:09:55.105Z,19.64
2018-05-04T09:10:35.704Z,19.66
2018-05-04T09:11:16.269Z,19.59
2018-05-04T09:11:56.879Z,19.66
2018-05-04T09:12:37.444Z,19.63
2018-05-04T09:13:18.015Z,19.51
2018-05-04T09:13:58.572Z,19.58
2018-05-04T09:14:39.141Z,19.56
2018-05-04T09:15:19.706Z,19.59
2018-05-04T09:16:00.277Z,19.7
2018-05-04T09:16:40.877Z,19.62
2018-05-04T09:17:21.446Z,19.52
2018-05-04T09:18:02.045Z,19.51
2018-05-04T09:18:42.638Z,19.51
2018-05-04T09:19:23.263Z,19.49
2018-05-04T09:20:04.020Z,19.52
2018-05-04T09:20:44.601Z,19.4
2018-05-04T09:21:25.165Z,19.51
2018-05-04T09:22:05.734Z,19.39
2018-05-04T09:22:46.303Z,19.41
2018-05-04T09:23:26.890Z,19.41
2018-05-04T09:24:07.474Z,19.4
2018-05-04T09:24:48.021Z,19.4
2018-05-04T09:25:28.675Z,19.41
2018-05-04T09:26:09.232Z,19.3
2018-05-04T09:26:49.859Z,19.4
2018-05-04T09:27:30.438Z,19.37
2018-05-04T09:28:11.035Z,19.37
2018-05-04T09:28:51.609Z,19.41
2018-05-04T09:29:32.175Z,19.45
2018-05-04T09:30:12.754Z,19.45
2018-05-04T09:30:53.354Z,19.49
2018-05-04T09:31:33.934Z,19.52
2018-05-04T09:32:14.519Z,19.55
2018-05-04T09:32:55.087Z,19.52
2018-05-04T09:33:35.657Z,19.58
2018-05-04T09:34:16.229Z,19.63
2018-05-04T09:34:56.826Z,19.62
2018-05-04T09:35:37.413Z,19.44
2018-05-04T09:36:17.991Z,19.39
2018-05-04T09:36:58.549Z,19.4
2018-05-04T09:37:39.156Z,19.31
2018-05-04T09:38:19.731Z,19.37
2018-05-04T09:39:00.319Z,19.33
2018-05-04T09:39:40.886Z,19.19
2018-05-04T09:40:21.522Z,19.19
2018-05-04T09:41:02.064Z,19.11
2018-05-04T09:41:42.650Z,18.96
2018-05-04T09:42:23.219Z,18.93
2018-05-04T09:43:03.879Z,18.89
2018-05-04T09:43:44.412Z,18.9
2018-05-04T09:44:24.947Z,18.9
2018-05-04T09:45:05.505Z,18.84
2018-05-04T09:45:46.074Z,18.81
2018-05-04T09:46:26.647Z,18.75
2018-05-04T09:47:07.212Z,18.8
2018-05-04T09:47:47.776Z,18.77
2018-05-04T09:48:28.345Z,18.7
2018-05-04T09:49:08.924Z,18.77
2018-05-04T09:49:49.486Z,18.7
2018-05-04T09:50:30.044Z,18.68
2018-05-04T09:51:10.637Z,18.7
2018-05-04T09:51:51.209Z,18.74
2018-05-04T09:52:31.792Z,18.68
2018-05-04T09:53:12.400Z,18.77
2018-05-04T09:53:52.963Z,18.73
2018-05-04T09:54:33.539Z,18.8
2018-05-04T09:55:14.088Z,18.93
2018-05-04T09:55:54.659Z,18.92
2018-05-04T09:56:35.215Z,18.9
2018-05-04T09:57:15.816Z,18.89
2018-05-04T09:57:56.384Z,18.99
2018-05-04T09:58:36.957Z,18.95
2018-05-04T09:59:17.523Z,18.92
2018-05-04T09:59:58.092Z,18.93
2018-05-04T10:00:38.662Z,18.9
2018-05-04T10:01:19.317Z,18.9
2018-05-04T10:01:59.902Z,18.9
2018-05-04T10:02:40.460Z,18.84
2018-05-04T10:03:21.019Z,18.9
2018-05-04T10:04:01.595Z,18.8
2018-05-04T10:04:42.161Z,18.83
2018-05-04T10:05:22.755Z,18.75
2018-05-04T10:06:03.327Z,18.83
2018-05-04T10:06:43.925Z,18.84
2018-05-04T10:07:24.511Z,18.77
2018-05-04T10:08:05.108Z,18.74
2018-05-04T10:08:45.739Z,18.65
2018-05-04T10:09:26.316Z,18.65
2018-05-04T10:10:06.880Z,18.68
2018-05-04T10:10:47.444Z,18.66
2018-05-04T10:11:28.068Z,18.66
2018-05-04T10:12:08.629Z,18.62
2018-05-04T10:12:49.193Z,18.53
2018-05-04T10:13:29.761Z,18.55
2018-05-04T10:14:10.319Z,18.66
2018-05-04T10:14:50.898Z,18.55
2018-05-04T10:15:31.480Z,18.55
2018-05-04T10:16:12.038Z,18.56
2018-05-04T10:16:52.662Z,18.52
2018-05-04T10:17:33.248Z,18.47
2018-05-04T10:18:13.838Z,18.41
2018-05-04T10:18:54.400Z,18.43
2018-05-04T10:19:34.955Z,18.35
2018-05-04T10:20:15.525Z,18.43
2018-05-04T10:20:56.130Z,18.45
2018-05-04T10:21:36.703Z,18.38
2018-05-04T10:22:17.274Z,18.49
2018-05-04T10:22:57.851Z,18.41
2018-05-04T10:23:38.415Z,18.47
2018-05-04T10:24:19.013Z,18.26
2018-05-04T10:24:59.567Z,18.35
2018-05-04T10:25:40.171Z,18.34
2018-05-04T10:26:20.762Z,18.26
2018-05-04T10:27:01.340Z,18.22
2018-05-04T10:27:41.901Z,18.22
2018-05-04T10:28:22.465Z,18.2
2018-05-04T10:29:03.057Z,18.18
2018-05-04T10:29:43.622Z,18.16
2018-05-04T10:30:24.193Z,18.05
2018-05-04T10:31:04.758Z,18.05
2018-05-04T10:31:45.324Z,18.04
2018-05-04T10:32:25.897Z,18.07
2018-05-04T10:33:06.470Z,18
2018-05-04T10:33:47.038Z,17.95
2018-05-04T10:34:27.623Z,17.95
2018-05-04T10:35:08.188Z,17.94
2018-05-04T10:35:48.749Z,17.92
2018-05-04T10:36:29.320Z,17.86
2018-05-04T10:37:09.884Z,17.92
2018-05-04T10:37:50.499Z,17.86
2018-05-04T10:38:31.184Z,17.89
2018-05-04T10:39:11.638Z,17.92
2018-05-04T10:39:52.214Z,18
2018-05-04T10:40:32.774Z,17.92
2018-05-04T10:41:13.335Z,17.89
2018-05-04T10:41:53.942Z,17.92
2018-05-04T10:42:34.502Z,17.92
2018-05-04T10:43:15.075Z,17.87
2018-05-04T10:43:55.641Z,17.83
2018-05-04T10:44:36.208Z,17.94
2018-05-04T10:45:16.758Z,17.92
2018-05-04T10:45:57.316Z,17.89
2018-05-04T10:46:37.881Z,17.86
2018-05-04T10:47:18.449Z,17.94
2018-05-04T10:47:59.009Z,17.87
2018-05-04T10:48:39.596Z,17.87
2018-05-04T10:49:20.152Z,17.86
2018-05-04T10:50:00.717Z,17.95
2018-05-04T10:50:41.301Z,17.95
2018-05-04T10:51:21.873Z,17.87
2018-05-04T10:52:02.438Z,17.89
2018-05-04T10:52:43.005Z,17.86
2018-05-04T10:53:23.569Z,17.87
2018-05-04T10:54:04.123Z,17.9
2018-05-04T10:54:44.699Z,17.86
2018-05-04T10:55:25.270Z,17.85
2018-05-04T10:56:05.836Z,17.8
2018-05-04T10:56:46.404Z,17.85
2018-05-04T10:57:26.976Z,17.82
2018-05-04T10:58:07.560Z,17.89
2018-05-04T10:58:48.117Z,17.82
2018-05-04T10:59:28.691Z,17.8
2018-05-04T11:00:09.308Z,17.87
2018-05-04T11:00:49.864Z,17.72
2018-05-04T11:01:30.429Z,17.79
2018-05-04T11:02:10.999Z,17.82
2018-05-04T11:02:51.569Z,17.72
2018-05-04T11:03:32.142Z,17.8
2018-05-04T11:04:12.698Z,17.72
2018-05-04T11:04:53.259Z,17.8
2018-05-04T11:05:33.820Z,17.78
2018-05-04T11:06:14.376Z,17.74
2018-05-04T11:06:54.936Z,17.78
2018-05-04T11:07:35.501Z,17.76
2018-05-04T11:08:16.068Z,17.65
2018-05-04T11:08:56.637Z,17.72
2018-05-04T11:09:37.194Z,17.71
2018-05-04T11:10:17.766Z,17.67
2018-05-04T11:10:58.341Z,17.57
2018-05-04T11:11:38.917Z,17.6
2018-05-04T11:12:19.472Z,17.49
2018-05-04T11:13:00.067Z,17.42
2018-05-04T11:13:40.647Z,17.42
2018-05-04T11:14:21.217Z,17.52
2018-05-04T11:15:01.774Z,17.49
2018-05-04T11:15:42.343Z,17.6
2018-05-04T11:16:22.902Z,17.63
2018-05-04T11:17:03.487Z,17.46
2018-05-04T11:17:44.073Z,17.51
2018-05-04T11:18:24.628Z,17.49
2018-05-04T11:19:05.192Z,17.46
2018-05-04T11:19:45.748Z,17.46
2018-05-04T11:20:26.313Z,17.45
2018-05-04T11:21:06.870Z,17.44
2018-05-04T11:21:47.436Z,17.46
2018-05-04T11:22:28.004Z,17.49
2018-05-04T11:23:08.566Z,17.44
2018-05-04T11:23:49.145Z,17.44
2018-05-04T11:24:29.710Z,17.48
2018-05-04T11:25:10.271Z,17.42
2018-05-04T11:25:50.848Z,17.34
2018-05-04T11:26:31.409Z,17.36
2018-05-04T11:27:11.976Z,17.36
2018-05-04T11:27:52.543Z,17.38
2018-05-04T11:28:33.108Z,17.31
2018-05-04T11:29:13.661Z,17.36
2018-05-04T11:29:54.231Z,17.33
2018-05-04T11:30:34.822Z,17.44
2018-05-04T11:31:15.401Z,17.36
2018-05-04T11:31:55.999Z,17.45
2018-05-04T11:32:36.567Z,17.49
2018-05-04T11:33:17.139Z,17.42
2018-05-04T11:33:57.728Z,17.42
2018-05-04T11:34:38.285Z,17.44
2018-05-04T11:35:18.861Z,17.45
2018-05-04T11:35:59.506Z,17.44
2018-05-04T11:36:40.015Z,17.44
2018-05-04T11:37:20.584Z,17.44
2018-05-04T11:38:01.153Z,17.44
2018-05-04T11:38:41.724Z,17.56
2018-05-04T11:39:22.317Z,17.56
2018-05-04T11:40:02.879Z,17.49
2018-05-04T11:40:43.441Z,17.52
2018-05-04T11:41:24.021Z,17.59
2018-05-04T11:42:04.617Z,17.51
2018-05-04T11:42:45.182Z,17.63
2018-05-04T11:43:25.742Z,17.68
2018-05-04T11:44:06.335Z,17.6
2018-05-04T11:44:46.898Z,17.6
2018-05-04T11:45:27.489Z,17.52
2018-05-04T11:46:08.054Z,17.71
2018-05-04T11:46:48.620Z,17.7
2018-05-04T11:47:29.181Z,17.71
2018-05-04T11:48:09.764Z,17.68
2018-05-04T11:48:50.348Z,17.71
2018-05-04T11:49:30.951Z,17.63
2018-05-04T11:50:11.508Z,17.68
2018-05-04T11:50:52.104Z,17.76
2018-05-04T11:51:32.707Z,17.68
2018-05-04T11:52:13.312Z,17.68
2018-05-04T11:52:53.892Z,17.76
2018-05-04T11:53:34.429Z,17.71
2018-05-04T11:54:15.019Z,17.7
2018-05-04T11:54:55.583Z,17.64
2018-05-04T11:55:36.137Z,17.67
2018-05-04T11:56:16.717Z,17.59
2018-05-04T11:56:57.280Z,17.54
2018-05-04T11:57:37.857Z,17.56
2018-05-04T11:58:18.421Z,17.65
2018-05-04T11:58:58.994Z,17.57
2018-05-04T11:59:39.566Z,17.56
2018-05-04T12:00:20.146Z,17.6
2018-05-04T12:01:00.709Z,17.6
2018-05-04T12:01:41.309Z,17.65
2018-05-04T12:02:21.921Z,17.56
2018-05-04T12:03:02.499Z,17.6
2018-05-04T12:03:43.082Z,17.57
2018-05-04T12:04:23.666Z,17.59
2018-05-04T12:05:04.249Z,17.64
2018-05-04T12:05:44.828Z,17.67
2018-05-04T12:06:25.414Z,17.6
2018-05-04T12:07:05.968Z,17.56
2018-05-04T12:07:46.531Z,17.57
2018-05-04T12:08:27.091Z,17.57
2018-05-04T12:09:07.713Z,17.54
2018-05-04T12:09:48.306Z,17.57
2018-05-04T12:10:28.889Z,17.59
2018-05-04T12:11:09.480Z,17.6
2018-05-04T12:11:50.036Z,17.56
2018-05-04T12:12:30.602Z,17.6
2018-05-04T12:13:11.154Z,17.57
2018-05-04T12:13:51.721Z,17.56
2018-05-04T12:14:32.288Z,17.67
2018-05-04T12:15:12.874Z,17.56
2018-05-04T12:15:53.447Z,17.59
2018-05-04T12:16:34.034Z,17.6
2018-05-04T12:17:14.568Z,17.59
2018-05-04T12:17:55.169Z,17.63
2018-05-04T12:18:35.720Z,17.71
2018-05-04T12:19:16.292Z,17.76
2018-05-04T12:19:57.827Z,17.74
2018-05-04T12:20:38.408Z,17.71
2018-05-04T12:21:18.963Z,17.74
2018-05-04T12:21:59.525Z,17.78
2018-05-04T12:22:40.119Z,17.74
2018-05-04T12:23:20.668Z,17.7
2018-05-04T12:24:01.230Z,17.7
2018-05-04T12:24:41.807Z,17.76
2018-05-04T12:25:22.488Z,17.79
2018-05-04T12:26:03.043Z,17.76
2018-05-04T12:26:43.606Z,17.8
2018-05-04T12:27:24.173Z,17.74
2018-05-04T12:28:04.747Z,17.71
2018-05-04T12:28:45.321Z,17.72
2018-05-04T12:29:25.911Z,17.7
2018-05-04T12:30:06.485Z,17.67
2018-05-04T12:30:47.054Z,17.65
2018-05-04T12:31:27.628Z,17.67
2018-05-04T12:32:08.194Z,17.76
2018-05-04T12:32:48.795Z,17.67
2018-05-04T12:33:29.382Z,17.71
2018-05-04T12:34:09.951Z,17.7
2018-05-04T12:34:50.518Z,17.72
2018-05-04T12:35:31.099Z,17.71
2018-05-04T12:36:11.671Z,17.76
2018-05-04T12:36:52.248Z,17.71
2018-05-04T12:37:32.804Z,17.72
2018-05-04T12:38:13.361Z,17.72
2018-05-04T12:38:53.931Z,17.7
2018-05-04T12:39:34.492Z,17.83
2018-05-04T12:40:15.073Z,17.8
2018-05-04T12:40:55.648Z,17.76
2018-05-04T12:41:36.224Z,17.8
2018-05-04T12:42:16.774Z,17.72
2018-05-04T12:42:57.354Z,17.79
2018-05-04T12:43:37.962Z,17.78
2018-05-04T12:44:18.548Z,17.79
2018-05-04T12:44:59.121Z,17.76
2018-05-04T12:45:39.710Z,17.8
2018-05-04T12:46:20.290Z,17.85
2018-05-04T12:47:00.971Z,17.89
2018-05-04T12:47:41.450Z,17.85
2018-05-04T12:48:22.032Z,17.79
2018-05-04T12:49:02.593Z,17.86
2018-05-04T12:49:43.169Z,17.87
2018-05-04T12:50:23.770Z,17.92
2018-05-04T12:51:04.342Z,17.98
2018-05-04T12:51:44.918Z,17.89
2018-05-04T12:52:25.480Z,17.87
2018-05-04T12:53:06.041Z,17.86
2018-05-04T12:53:46.702Z,17.9
2018-05-04T12:54:27.204Z,17.9
2018-05-04T12:55:07.758Z,17.89
2018-05-04T12:55:48.360Z,17.9
2018-05-04T12:56:28.948Z,17.9
2018-05-04T12:57:09.516Z,17.9
2018-05-04T12:57:50.077Z,17.95
2018-05-04T12:58:30.658Z,17.87
2018-05-04T12:59:11.245Z,17.87
2018-05-04T12:59:51.802Z,17.87
2018-05-04T13:00:32.373Z,17.9
2018-05-04T13:01:12.943Z,17.87
2018-05-04T13:01:53.496Z,17.94
2018-05-04T13:02:34.055Z,17.85
2018-05-04T13:03:14.622Z,17.87
2018-05-04T13:03:55.215Z,17.92
2018-05-04T13:04:35.827Z,17.86
2018-05-04T13:05:16.593Z,17.87
2018-05-04T13:05:57.207Z,17.86
2018-05-04T13:06:37.771Z,17.89
2018-05-04T13:07:18.321Z,17.85
2018-05-04T13:07:58.909Z,17.92
2018-05-04T13:08:39.477Z,17.94
2018-05-04T13:09:20.071Z,17.9
2018-05-04T13:10:00.673Z,17.89
2018-05-04T13:10:41.277Z,17.86
2018-05-04T13:11:21.870Z,17.9
2018-05-04T13:12:02.449Z,17.94
2018-05-04T13:12:43.044Z,17.83
2018-05-04T13:13:23.614Z,17.94
2018-05-04T13:14:04.167Z,17.92
2018-05-04T13:14:44.733Z,17.94
2018-05-04T13:15:25.297Z,17.98
2018-05-04T13:16:05.849Z,18.01
2018-05-04T13:16:46.436Z,18.03
2018-05-04T13:17:27.051Z,17.98
2018-05-04T13:18:07.587Z,18.07
2018-05-04T13:18:48.157Z,18.05
2018-05-04T13:19:28.720Z,18.05
2018-05-04T13:20:09.301Z,18.18
2018-05-04T13:20:49.895Z,18.04
2018-05-04T13:21:30.478Z,18.13
2018-05-04T13:22:11.038Z,18.13
2018-05-04T13:22:51.651Z,18.1
2018-05-04T13:23:32.208Z,18.16
2018-05-04T13:24:12.763Z,18.13
2018-05-04T13:24:53.342Z,18.11
2018-05-04T13:25:33.927Z,18.2
2018-05-04T13:26:14.543Z,18.2
2018-05-04T13:26:55.135Z,18.18
2018-05-04T13:27:35.698Z,18.16
2018-05-04T13:28:16.282Z,18.2
2018-05-04T13:28:56.862Z,18.18
2018-05-04T13:29:37.457Z,18.29
2018-05-04T13:30:18.014Z,18.23
2018-05-04T13:30:58.573Z,18.13
2018-05-04T13:31:39.178Z,18.18
2018-05-04T13:32:19.739Z,18.18
2018-05-04T13:33:00.303Z,18.18
2018-05-04T13:33:40.902Z,18.22
2018-05-04T13:34:21.506Z,18.31
2018-05-04T13:35:02.120Z,18.28
2018-05-04T13:35:42.676Z,18.23
2018-05-04T13:36:23.338Z,18.25
2018-05-04T13:37:04.351Z,18.23
2018-05-04T13:37:45.102Z,18.33
2018-05-04T13:38:25.656Z,18.31
2018-05-04T13:39:06.446Z,18.25
2018-05-04T13:39:47.126Z,18.34
2018-05-04T13:40:27.744Z,18.26
2018-05-04T13:41:08.561Z,18.35
2018-05-04T13:41:49.380Z,18.33
2018-05-04T13:42:30.128Z,18.29
2018-05-04T13:43:10.715Z,18.31
2018-05-04T13:43:51.293Z,18.31
2018-05-04T13:44:31.949Z,18.29
2018-05-04T13:45:12.477Z,18.29
2018-05-04T13:45:53.064Z,18.34
2018-05-04T13:46:33.691Z,18.26
2018-05-04T13:47:14.463Z,18.34
2018-05-04T13:47:55.134Z,18.33
2018-05-04T13:48:35.748Z,18.31
2018-05-04T13:49:16.556Z,18.34
2018-05-04T13:49:57.126Z,18.31
2018-05-04T13:50:37.707Z,18.31
2018-05-04T13:51:18.356Z,18.43
2018-05-04T13:51:58.889Z,18.43
2018-05-04T13:52:39.445Z,18.45
2018-05-04T13:53:20.020Z,18.38
2018-05-04T13:54:00.589Z,18.45
2018-05-04T13:54:41.156Z,18.35
2018-05-04T13:55:21.722Z,18.45
2018-05-04T13:56:02.321Z,18.38
2018-05-04T13:56:42.886Z,18.44
2018-05-04T13:57:23.481Z,18.45
2018-05-04T13:58:04.070Z,18.41
2018-05-04T13:58:44.650Z,18.43
2018-05-04T13:59:25.236Z,18.4
2018-05-04T14:00:05.808Z,18.5
2018-05-04T14:00:46.417Z,18.44
2018-05-04T14:01:26.978Z,18.41
2018-05-04T14:02:07.555Z,18.34
2018-05-04T14:02:48.132Z,18.4
2018-05-04T14:03:28.712Z,18.44
2018-05-04T14:04:09.293Z,18.4
2018-05-04T14:04:49.910Z,18.45
2018-05-04T14:05:30.492Z,18.44
2018-05-04T14:06:11.079Z,18.43
2018-05-04T14:06:51.659Z,18.4
2018-05-04T14:07:32.439Z,18.43
2018-05-04T14:08:12.863Z,18.41
2018-05-04T14:08:53.464Z,18.52
2018-05-04T14:09:34.022Z,18.43
2018-05-04T14:10:14.625Z,18.5
2018-05-04T14:10:55.188Z,18.49
2018-05-04T14:11:35.753Z,18.55
2018-05-04T14:12:16.319Z,18.52
2018-05-04T14:12:56.874Z,18.5
2018-05-04T14:13:37.448Z,18.55
2018-05-04T14:14:18.009Z,18.47
2018-05-04T14:14:58.571Z,18.5
2018-05-04T14:15:39.191Z,18.52
2018-05-04T14:16:19.776Z,18.59
2018-05-04T14:17:00.361Z,18.55
2018-05-04T14:17:40.946Z,18.55
2018-05-04T14:18:21.517Z,18.53
2018-05-04T14:19:02.159Z,18.58
2018-05-04T14:19:42.765Z,18.59
2018-05-04T14:20:23.317Z,18.58
2018-05-04T14:21:03.886Z,18.52